Terminal Aerodrome Forecast
Issued by NWS

Home | Current Version | Previous Version | Text Only | Print | Product List | Glossary On
Versions: 1 2 3 4 5 6 7 8 9 10 11 12
000
FTUS41 KLWX 281700
TAFMTN
TAF
KMTN 281728Z 2818/2918 27018G27KT P6SM BKN050
     FM290100 30012KT P6SM BKN050
     FM290500 30007KT P6SM BKN090
     FM291000 30006KT P6SM SCT090
     FM291500 31010KT P6SM SCT050=

USA.gov is the U.S. government's official web portal to all federal, state and local government web resources and services.